createdAt,value
2023-01-09T00:02:25.064Z,17.55
2023-01-09T00:09:56.853Z,17.05
2023-01-09T00:17:28.625Z,18.40
2023-01-09T00:25:00.359Z,19.02
2023-01-09T00:32:32.298Z,19.85
2023-01-09T00:40:04.213Z,21.73
2023-01-09T00:47:42.802Z,21.77
2023-01-09T00:55:14.654Z,22.00
2023-01-09T01:02:46.533Z,18.98
2023-01-09T01:10:22.187Z,18.38
2023-01-09T01:17:54.033Z,17.15
2023-01-09T01:25:25.829Z,16.67
2023-01-09T01:32:57.646Z,15.23
2023-01-09T01:40:29.921Z,13.50
2023-01-09T01:48:37.175Z,13.77
2023-01-09T01:56:26.466Z,13.50
2023-01-09T02:03:58.462Z,12.43
2023-01-09T02:11:30.236Z,11.38
2023-01-09T02:19:42.321Z,11.82
2023-01-09T02:27:24.117Z,11.10
2023-01-09T02:35:02.430Z,10.73
2023-01-09T02:42:34.195Z,9.82
2023-01-09T02:50:09.799Z,8.90
2023-01-09T02:58:09.326Z,9.25
2023-01-09T03:05:51.426Z,8.25
2023-01-09T03:13:24.900Z,8.25
2023-01-09T03:20:56.709Z,8.20
2023-01-09T03:28:28.983Z,7.88
2023-01-09T03:36:00.806Z,7.18
2023-01-09T03:43:32.609Z,6.60
2023-01-09T03:51:04.423Z,6.80
2023-01-09T03:58:36.239Z,6.05
2023-01-09T04:06:08.045Z,6.65
2023-01-09T04:13:39.859Z,5.93
2023-01-09T04:21:11.679Z,6.18
2023-01-09T04:28:43.391Z,6.35
2023-01-09T04:36:15.159Z,5.47
2023-01-09T04:43:46.910Z,5.47
2023-01-09T04:51:18.663Z,5.07
2023-01-09T04:58:50.421Z,4.75
2023-01-09T05:06:22.155Z,5.45
2023-01-09T05:13:53.964Z,4.38
2023-01-09T05:21:25.760Z,4.80
2023-01-09T05:28:57.570Z,4.85
2023-01-09T05:36:29.718Z,4.40
2023-01-09T05:44:07.577Z,4.57
2023-01-09T05:51:39.377Z,4.28
2023-01-09T05:59:11.136Z,4.50
2023-01-09T06:06:42.963Z,4.38
2023-01-09T06:14:14.738Z,4.07
2023-01-09T06:21:46.525Z,3.88
2023-01-09T06:29:18.408Z,4.03
2023-01-09T06:36:50.197Z,4.13
2023-01-09T06:44:21.945Z,3.58
2023-01-09T06:51:53.698Z,3.80
2023-01-09T06:59:25.616Z,4.45
2023-01-09T07:06:57.330Z,4.32
2023-01-09T07:14:29.087Z,4.55
2023-01-09T07:22:00.834Z,4.00
2023-01-09T07:29:32.596Z,4.72
2023-01-09T07:37:04.379Z,5.32
2023-01-09T07:44:36.237Z,6.40
2023-01-09T07:52:08.196Z,6.15
2023-01-09T07:59:40.077Z,7.00
2023-01-09T08:07:11.890Z,7.30
2023-01-09T08:14:43.662Z,7.50
2023-01-09T08:22:15.449Z,8.45
2023-01-09T08:29:47.197Z,8.30
2023-01-09T08:37:18.937Z,9.15
2023-01-09T08:45:09.207Z,9.52
2023-01-09T08:52:40.949Z,9.50
2023-01-09T09:00:13.879Z,9.77
2023-01-09T09:07:56.374Z,9.73
2023-01-09T09:15:28.682Z,9.52
2023-01-09T09:23:00.511Z,9.40
2023-01-09T09:30:32.347Z,9.68
2023-01-09T09:38:05.552Z,10.35
2023-01-09T09:45:55.339Z,9.77
2023-01-09T09:53:51.974Z,10.48
2023-01-09T10:01:45.629Z,10.70
2023-01-09T10:10:00.586Z,10.80
2023-01-09T10:18:12.253Z,10.40
2023-01-09T10:26:01.458Z,10.40
2023-01-09T10:33:48.237Z,10.95
2023-01-09T10:41:24.055Z,9.80
2023-01-09T10:48:59.652Z,9.68
2023-01-09T10:56:34.379Z,10.18
2023-01-09T11:04:20.649Z,8.40
2023-01-09T11:11:52.886Z,7.78
2023-01-09T11:19:25.638Z,7.85
2023-01-09T11:27:12.625Z,6.72
2023-01-09T11:34:45.157Z,7.32
2023-01-09T11:42:47.198Z,6.28
2023-01-09T11:50:24.923Z,6.32
2023-01-09T11:57:56.831Z,6.28
2023-01-09T12:05:53.312Z,5.03
2023-01-09T12:13:53.287Z,5.45
2023-01-09T12:21:46.042Z,5.97
2023-01-09T12:29:26.996Z,5.07
2023-01-09T12:37:01.793Z,5.40
2023-01-09T12:44:57.756Z,4.60
2023-01-09T12:52:34.784Z,6.05
2023-01-09T13:00:18.885Z,4.85
2023-01-09T13:08:02.163Z,5.33
2023-01-09T13:15:39.708Z,5.60
2023-01-09T13:23:56.352Z,5.43
2023-01-09T13:31:41.707Z,4.55
2023-01-09T13:39:39.814Z,4.85
2023-01-09T13:47:35.677Z,4.80
2023-01-09T13:55:16.441Z,4.03
2023-01-09T14:02:49.799Z,4.28
2023-01-09T14:10:42.024Z,3.78
2023-01-09T14:18:23.935Z,4.22
2023-01-09T14:25:55.803Z,4.20
2023-01-09T14:33:29.916Z,3.25
2023-01-09T14:41:46.249Z,4.03
2023-01-09T14:49:32.085Z,3.63
2023-01-09T14:57:03.992Z,3.75
2023-01-09T15:04:36.349Z,4.18
2023-01-09T15:12:09.492Z,3.47
2023-01-09T15:19:44.303Z,3.58
2023-01-09T15:27:16.466Z,3.42
2023-01-09T15:34:48.522Z,3.42
2023-01-09T15:42:44.304Z,3.72
2023-01-09T15:50:26.773Z,2.75
2023-01-09T15:57:58.730Z,3.65
2023-01-09T16:05:32.943Z,2.72
2023-01-09T16:13:04.756Z,3.30
2023-01-09T16:20:36.780Z,3.15
2023-01-09T16:28:27.125Z,3.00
2023-01-09T16:35:59.078Z,2.90
2023-01-09T16:43:30.812Z,3.03
2023-01-09T16:51:02.616Z,2.63
2023-01-09T16:58:35.343Z,3.00
2023-01-09T17:06:07.511Z,3.05
2023-01-09T17:13:39.262Z,2.70
2023-01-09T17:21:23.170Z,2.47
2023-01-09T17:28:54.935Z,2.35
2023-01-09T17:36:32.166Z,2.70
2023-01-09T17:44:04.354Z,1.88
2023-01-09T17:51:36.111Z,2.28
2023-01-09T17:59:10.012Z,2.15
2023-01-09T18:06:41.868Z,2.35
2023-01-09T18:14:14.060Z,1.85
2023-01-09T18:21:46.753Z,2.47
2023-01-09T18:29:19.262Z,2.70
2023-01-09T18:36:51.063Z,2.97
2023-01-09T18:44:23.287Z,3.72
2023-01-09T18:51:55.337Z,3.22
2023-01-09T18:59:27.055Z,3.45
2023-01-09T19:06:59.864Z,2.33
2023-01-09T19:14:31.587Z,2.70
2023-01-09T19:22:03.503Z,2.67
2023-01-09T19:29:36.870Z,2.25
2023-01-09T19:37:09.568Z,2.55
2023-01-09T19:44:41.424Z,1.85
2023-01-09T19:52:14.642Z,1.95
2023-01-09T19:59:46.400Z,2.40
2023-01-09T20:07:18.161Z,2.30
2023-01-09T20:14:50.002Z,7.40
2023-01-09T20:22:23.965Z,2.33
2023-01-09T20:29:55.800Z,2.90
2023-01-09T20:37:27.542Z,3.00
2023-01-09T20:44:59.614Z,2.65
2023-01-09T20:52:31.354Z,2.72
2023-01-09T21:00:04.440Z,2.33
2023-01-09T21:07:36.197Z,2.72
2023-01-09T21:15:09.722Z,2.33
2023-01-09T21:22:41.574Z,3.03
2023-01-09T21:30:13.469Z,2.70
2023-01-09T21:37:45.237Z,2.88
2023-01-09T21:45:35.632Z,2.75
2023-01-09T21:53:07.984Z,2.42
2023-01-09T22:00:41.022Z,2.17
2023-01-09T22:08:12.806Z,1.88
2023-01-09T22:15:46.050Z,2.80
2023-01-09T22:23:17.766Z,2.13
2023-01-09T22:30:49.529Z,2.03
2023-01-09T22:38:21.296Z,2.00
2023-01-09T22:45:53.032Z,2.33
2023-01-09T22:53:24.808Z,2.20
2023-01-09T23:00:56.612Z,1.88
2023-01-09T23:08:29.120Z,2.15
2023-01-09T23:16:01.757Z,1.88
2023-01-09T23:23:33.532Z,1.80
2023-01-09T23:31:05.326Z,1.77
2023-01-09T23:38:37.120Z,2.97
2023-01-09T23:46:08.929Z,1.63
2023-01-09T23:53:40.701Z,1.52
